Time;durP1;ratioP1;P1;durP2;ratioP2;P2;SDS_P1;SDS_P2;PMS_P1;PMS_P2;Temp;Humidity;BMP_temperature;BMP_pressure;BME280_temperature;BME280_humidity;BME280_pressure;Samples;Min_cycle;Max_cycle;Signal;HPM_P1;HPM_P2
2022/06/17 00:01:59;;;;;;;4.30;3.45;;;;;;;19.15;100.00;152466.22;1686842;85;20990;-61
2022/06/17 00:04:26;;;;;;;5.90;3.75;;;;;;;19.24;100.00;152488.41;1686907;85;21105;-61
2022/06/17 00:06:57;;;;;;;7.53;4.10;;;;;;;19.27;100.00;152496.23;1686693;84;21058;-62
2022/06/17 00:09:25;;;;;;;6.67;4.28;;;;;;;19.31;100.00;152508.00;1686742;85;20990;-61
2022/06/17 00:11:53;;;;;;;9.15;4.17;;;;;;;19.38;100.00;152523.66;1677128;85;21049;-61
2022/06/17 00:14:25;;;;;;;5.12;4.20;;;;;;;19.41;100.00;152532.81;1652454;86;21471;-62
2022/06/17 00:16:52;;;;;;;5.42;4.12;;;;;;;19.34;100.00;152514.50;1651632;86;21938;-61
2022/06/17 00:19:19;;;;;;;7.62;4.58;;;;;;;19.28;100.00;152498.84;1652397;86;21084;-61
2022/06/17 00:21:52;;;;;;;6.92;4.58;;;;;;;19.24;100.00;152489.73;1652639;86;21026;-62
2022/06/17 00:24:24;;;;;;;8.28;4.40;;;;;;;19.24;100.00;152488.41;1620673;87;21467;-62
2022/06/17 00:26:53;;;;;;;5.15;3.95;;;;;;;19.25;100.00;152491.02;1620494;88;21097;-62
2022/06/17 00:29:25;;;;;;;5.67;4.55;;;;;;;19.25;100.00;152491.02;1620174;87;21028;-61
2022/06/17 00:31:52;;;;;;;5.92;4.55;;;;;;;19.24;100.00;152488.41;1620557;88;21052;-61
2022/06/17 00:34:19;;;;;;;6.25;4.37;;;;;;;19.24;100.00;152488.41;1620456;88;21073;-62
2022/06/17 00:36:46;;;;;;;8.48;4.62;;;;;;;19.24;100.00;152489.73;1620160;88;21072;-62
2022/06/17 00:39:18;;;;;;;7.75;4.58;;;;;;;19.28;100.00;152498.84;1620185;87;21101;-61
2022/06/17 00:41:48;;;;;;;6.10;4.67;;;;;;;19.31;100.00;152508.00;1620559;88;21211;-61
2022/06/17 00:44:34;;;;;;;6.65;5.15;;;;;;;19.34;100.00;152514.50;1620237;88;21503;-57
2022/06/17 00:47:24;;;;;;;6.47;4.65;;;;;;;19.36;100.00;152519.77;1618257;87;21057;-57
2022/06/17 00:50:15;;;;;;;8.30;5.28;;;;;;;19.42;100.00;152534.09;1628780;87;21044;-56
2022/06/17 00:52:47;;;;;;;7.25;4.85;;;;;;;19.44;100.00;152540.64;1620303;87;21053;-57
2022/06/17 00:55:32;;;;;;;6.97;5.15;;;;;;;19.42;100.00;152535.42;1620127;88;21993;-56
2022/06/17 00:58:01;;;;;;;7.10;5.65;;;;;;;19.44;100.00;152540.64;1620079;88;21595;-55
2022/06/17 01:00:29;;;;;;;7.95;5.33;;;;;;;19.45;100.00;152543.25;1620482;88;21041;-56
2022/06/17 01:03:05;;;;;;;6.25;4.95;;;;;;;19.47;100.00;152547.19;1601515;88;21038;-58
2022/06/17 01:05:55;;;;;;;7.37;5.30;;;;;;;19.50;100.00;152553.69;1620361;88;21495;-56
2022/06/17 01:11:30;;;;;;;7.00;5.62;;;;;;;19.52;100.00;152558.91;1639513;86;21124;-57
2022/06/17 01:13:57;;;;;;;9.08;5.85;;;;;;;19.58;100.00;152574.59;1695586;84;21032;-56
2022/06/17 01:16:33;;;;;;;10.32;5.80;;;;;;;19.56;100.00;152569.33;1696059;84;21092;-56
2022/06/17 01:19:11;;;;;;;7.62;5.55;;;;;;;19.55;100.00;152566.72;1680856;84;21478;-56
2022/06/17 01:21:44;;;;;;;9.80;5.30;;;;;;;19.55;100.00;152566.72;1695792;84;21337;-56
2022/06/17 01:24:11;;;;;;;6.80;5.55;;;;;;;19.57;100.00;152571.98;1685351;84;21079;-56
2022/06/17 01:26:39;;;;;;;9.78;6.12;;;;;;;19.57;100.00;152571.98;1687159;83;21032;-56
2022/06/17 01:29:15;;;;;;;11.50;6.15;;;;;;;19.57;100.00;152571.98;1686676;83;21076;-57
2022/06/17 01:31:48;;;;;;;7.55;5.95;;;;;;;19.57;100.00;152573.27;1686965;85;21485;-56
2022/06/17 01:34:17;;;;;;;7.83;5.83;;;;;;;19.56;100.00;152569.33;1687008;84;21148;-56
2022/06/17 01:36:44;;;;;;;8.10;5.85;;;;;;;19.55;100.00;152566.72;1686914;83;21107;-56
2022/06/17 01:39:13;;;;;;;9.85;5.85;;;;;;;19.56;100.00;152569.33;1686876;84;21461;-56
2022/06/17 01:41:41;;;;;;;8.15;5.97;;;;;;;19.55;100.00;152566.72;1686835;84;21103;-56
2022/06/17 01:44:23;;;;;;;7.08;6.12;;;;;;;19.57;100.00;152573.27;1686938;85;21022;-57
2022/06/17 01:46:53;;;;;;;6.15;5.47;;;;;;;19.64;100.00;152588.92;1686867;85;21215;-56
2022/06/17 01:49:24;;;;;;;8.40;5.58;;;;;;;19.67;100.00;152598.08;1686927;85;21027;-55
2022/06/17 01:52:15;;;;;;;7.58;5.78;;;;;;;19.70;100.00;152605.91;1686892;84;21031;-56
2022/06/17 01:54:57;;;;;;;7.10;5.58;;;;;;;19.73;100.00;152613.73;1657654;85;21867;-56
2022/06/17 01:57:35;;;;;;;6.58;5.03;;;;;;;19.75;100.00;152617.67;1687010;85;21076;-56
2022/06/17 02:00:11;;;;;;;9.48;5.65;;;;;;;19.73;100.00;152613.73;1687116;84;21028;-56
2022/06/17 02:02:51;;;;;;;9.63;5.50;;;;;;;19.71;100.00;152607.23;1686327;85;20994;-55
2022/06/17 02:05:18;;;;;;;7.25;5.50;;;;;;;19.70;100.00;152605.91;1687133;85;20906;-57
2022/06/17 02:07:58;;;;;;;6.92;5.65;;;;;;;19.68;100.00;152599.41;1686935;85;21057;-56
2022/06/17 02:10:33;;;;;;;9.90;5.53;;;;;;;19.64;100.00;152590.25;1687137;85;21459;-56
2022/06/17 02:13:02;;;;;;;9.38;5.62;;;;;;;19.64;100.00;152588.92;1686941;84;21262;-56
2022/06/17 02:15:33;;;;;;;8.60;5.42;;;;;;;19.69;100.00;152603.30;1686717;85;21505;-57
2022/06/17 02:18:18;;;;;;;11.35;5.85;;;;;;;19.70;100.00;152605.91;1681990;85;20940;-56
2022/06/17 02:20:50;;;;;;;7.22;5.15;;;;;;;19.76;100.00;152621.56;1685436;85;20899;-57
2022/06/17 02:23:17;;;;;;;7.80;5.10;;;;;;;19.79;100.00;152626.84;1686974;83;21053;-56
2022/06/17 02:25:48;;;;;;;7.17;5.00;;;;;;;19.85;100.00;152643.77;1687091;84;21798;-57
2022/06/17 02:28:18;;;;;;;6.47;4.80;;;;;;;19.92;100.00;152660.81;1687017;83;21343;-57
2022/06/17 02:30:47;;;;;;;6.90;5.03;;;;;;;19.99;100.00;152679.08;1687068;84;21026;-58
2022/06/17 02:33:14;;;;;;;5.87;4.87;;;;;;;20.13;100.00;152713.05;1687139;85;20947;-57
2022/06/17 02:35:54;;;;;;;9.60;5.60;;;;;;;20.26;100.00;152745.70;1687156;84;20927;-57
2022/06/17 02:38:25;;;;;;;5.72;5.08;;;;;;;20.38;100.00;152775.75;1687043;84;21153;-57
2022/06/17 02:40:56;;;;;;;6.72;5.33;;;;;;;20.48;100.00;152801.91;1687169;85;20979;-58
2022/06/17 02:43:27;;;;;;;6.83;4.80;;;;;;;20.61;100.00;152834.56;1686057;85;21112;-57
2022/06/17 02:46:14;;;;;;;8.13;4.58;;;;;;;20.70;100.00;152858.06;1687271;85;20930;-58
2022/06/17 02:48:54;;;;;;;7.62;4.22;;;;;;;20.78;100.00;152877.66;1686242;85;21021;-57
2022/06/17 02:51:23;;;;;;;7.87;4.70;;;;;;;20.84;99.35;152893.38;1687009;85;21212;-57
2022/06/17 02:53:50;;;;;;;7.70;4.50;;;;;;;20.91;98.37;152909.09;1686959;85;21008;-57
2022/06/17 02:56:24;;;;;;;7.58;4.22;;;;;;;20.97;97.43;152926.03;1687317;85;20919;-57
2022/06/17 02:59:11;;;;;;;5.47;4.05;;;;;;;20.98;95.84;152927.38;1686919;84;21108;-57
2022/06/17 03:01:40;;;;;;;6.00;4.20;;;;;;;20.93;95.11;152914.31;1686825;85;21013;-57
2022/06/17 03:04:15;;;;;;;9.53;3.90;;;;;;;20.87;93.99;152901.22;1681689;85;21162;-57
2022/06/17 03:06:45;;;;;;;7.70;4.08;;;;;;;20.84;93.59;152893.38;1686243;85;21017;-57
2022/06/17 03:09:29;;;;;;;6.15;4.03;;;;;;;20.87;92.63;152901.22;1687034;85;21062;-57
2022/06/17 03:12:18;;;;;;;7.72;4.03;;;;;;;20.91;92.13;152909.09;1687173;85;20982;-57
2022/06/17 03:15:09;;;;;;;6.90;3.95;;;;;;;20.97;91.08;152924.75;1679272;84;21081;-57
2022/06/17 03:17:42;;;;;;;8.00;3.77;;;;;;;20.99;90.48;152929.98;1667026;86;21788;-57
2022/06/17 03:20:27;;;;;;;6.72;3.90;;;;;;;21.06;89.63;152948.27;1678986;85;21041;-57
2022/06/17 03:23:03;;;;;;;5.97;3.87;;;;;;;21.15;89.20;152970.48;1652738;86;21463;-57
2022/06/17 03:25:57;;;;;;;6.28;3.30;;;;;;;21.24;88.61;152992.72;1653693;85;21027;-56
2022/06/17 03:28:43;;;;;;;5.15;3.20;;;;;;;21.35;88.13;153020.16;1657121;86;21092;-57
2022/06/17 03:31:34;;;;;;;5.70;3.12;;;;;;;21.43;87.42;153042.39;1678531;84;22056;-56
2022/06/17 03:34:10;;;;;;;7.05;3.55;;;;;;;21.52;86.89;153063.28;1678996;84;21025;-57
2022/06/17 03:36:52;;;;;;;6.35;3.22;;;;;;;21.64;86.52;153094.69;1650270;86;21039;-57
2022/06/17 03:39:39;;;;;;;5.85;3.33;;;;;;;21.77;86.11;153126.08;1679173;85;21033;-57
2022/06/17 03:42:14;;;;;;;3.77;2.90;;;;;;;21.93;85.33;153167.94;1659090;85;21522;-57
2022/06/17 03:44:55;;;;;;;4.62;3.22;;;;;;;22.08;84.50;153204.56;1679083;85;21130;-58
2022/06/17 03:47:49;;;;;;;5.08;2.90;;;;;;;22.17;84.14;153228.09;1656975;85;21529;-57
2022/06/17 03:50:27;;;;;;;4.85;3.08;;;;;;;22.29;83.75;153259.50;1657308;86;21033;-59
2022/06/17 03:53:05;;;;;;;5.80;2.98;;;;;;;22.43;83.45;153293.47;1678920;84;21127;-58
2022/06/17 03:55:31;;;;;;;7.20;3.08;;;;;;;22.53;82.82;153319.70;1678934;85;21494;-57
2022/06/17 03:58:00;;;;;;;5.15;2.87;;;;;;;22.63;82.84;153344.56;1678882;84;21212;-57
2022/06/17 04:00:43;;;;;;;5.97;3.52;;;;;;;22.78;82.47;153381.22;1677511;84;21038;-57
2022/06/17 04:03:15;;;;;;;5.28;3.30;;;;;;;22.91;81.68;153413.91;1679121;85;21043;-57
2022/06/17 04:05:44;;;;;;;5.28;3.08;;;;;;;22.97;81.40;153430.87;1628869;85;21057;-57
2022/06/17 04:08:12;;;;;;;5.30;3.50;;;;;;;23.07;81.20;153454.47;1678866;85;21024;-56
2022/06/17 04:10:41;;;;;;;6.33;3.00;;;;;;;23.20;81.22;153487.17;1678711;85;22122;-57
2022/06/17 04:13:15;;;;;;;5.95;2.92;;;;;;;23.33;80.50;153521.27;1653985;85;21003;-62
2022/06/17 04:15:54;;;;;;;6.03;2.95;;;;;;;23.46;80.08;153555.27;1652371;85;21266;-64
2022/06/17 04:18:22;;;;;;;4.85;2.90;;;;;;;23.65;79.18;153601.06;1647969;86;21493;-62
2022/06/17 04:20:57;;;;;;;4.15;2.70;;;;;;;23.83;78.18;153648.19;1679078;85;21428;-62
2022/06/17 04:23:33;;;;;;;8.33;3.00;;;;;;;23.99;77.38;153688.81;1679196;85;21032;-62
2022/06/17 04:26:29;;;;;;;4.25;2.50;;;;;;;24.12;76.22;153720.25;1655892;86;21061;-56
2022/06/17 04:29:03;;;;;;;5.75;2.72;;;;;;;24.20;75.24;153741.19;1678770;85;21073;-57
2022/06/17 04:31:32;;;;;;;9.25;2.67;;;;;;;24.34;74.67;153776.59;1666682;86;21972;-56
2022/06/17 04:34:09;;;;;;;7.58;2.80;;;;;;;24.49;73.51;153814.56;1677808;84;21001;-56
2022/06/17 04:37:02;;;;;;;4.12;2.50;;;;;;;24.60;72.60;153843.34;1678793;85;21502;-56
2022/06/17 04:39:44;;;;;;;3.52;2.45;;;;;;;24.72;71.76;153873.47;1666119;84;22009;-55
2022/06/17 04:42:20;;;;;;;5.72;2.70;;;;;;;24.84;71.01;153902.36;1676780;84;21008;-56
2022/06/17 04:44:53;;;;;;;8.65;3.27;;;;;;;24.97;69.95;153936.38;1679065;85;21037;-56
2022/06/17 04:47:21;;;;;;;3.25;2.30;;;;;;;25.13;68.81;153975.69;1657088;86;21120;-56
2022/06/17 04:49:57;;;;;;;4.17;2.30;;;;;;;25.19;67.27;153991.41;1678762;85;22018;-56
2022/06/17 04:52:36;;;;;;;5.28;2.37;;;;;;;25.27;66.68;154011.06;1656737;86;21041;-57
2022/06/17 04:55:35;;;;;;;3.33;2.20;;;;;;;25.40;65.36;154043.81;1657206;86;21081;-57
2022/06/17 04:58:18;;;;;;;3.02;1.95;;;;;;;25.57;64.12;154087.14;1700727;84;21111;-57
2022/06/17 05:00:54;;;;;;;5.55;2.15;;;;;;;25.69;61.89;154118.56;1678326;85;21043;-56
2022/06/17 05:03:27;;;;;;;6.12;2.20;;;;;;;25.83;60.88;154153.94;1666955;85;21278;-56
2022/06/17 05:06:01;;;;;;;4.60;2.20;;;;;;;25.99;59.58;154194.61;1677500;85;21538;-56
2022/06/17 05:08:34;;;;;;;2.02;1.82;;;;;;;26.14;58.29;154232.63;1678977;85;21128;-56
2022/06/17 05:11:24;;;;;;;4.20;2.05;;;;;;;26.26;57.62;154262.81;1656925;86;21502;-56
2022/06/17 05:14:06;;;;;;;3.60;1.75;;;;;;;26.41;56.64;154299.48;1656914;85;21537;-57
2022/06/17 05:16:34;;;;;;;6.17;2.15;;;;;;;26.58;55.50;154342.78;1656885;86;21249;-57
2022/06/17 05:19:01;;;;;;;3.92;1.92;;;;;;;26.74;54.49;154383.44;1656819;85;21497;-56
2022/06/17 05:21:29;;;;;;;4.47;2.20;;;;;;;26.84;53.69;154409.64;1656736;86;21100;-56
2022/06/17 05:23:58;;;;;;;2.90;2.10;;;;;;;26.95;52.25;154435.94;1677355;85;21112;-56
2022/06/17 05:26:27;;;;;;;2.75;1.98;;;;;;;26.99;51.66;154447.75;1679031;85;21005;-56
2022/06/17 05:28:55;;;;;;;6.35;2.30;;;;;;;27.06;51.43;154463.47;1678853;85;21525;-56
2022/06/17 05:31:24;;;;;;;3.77;2.02;;;;;;;27.11;51.53;154477.91;1678907;84;21014;-56
2022/06/17 05:33:53;;;;;;;4.30;2.25;;;;;;;27.22;50.55;154504.13;1666244;86;21084;-62
2022/06/17 05:36:20;;;;;;;4.95;2.10;;;;;;;27.35;51.06;154538.25;1653968;84;21019;-57
2022/06/17 05:38:49;;;;;;;3.77;1.77;;;;;;;27.48;49.50;154571.03;1679114;85;21446;-57
2022/06/17 05:41:20;;;;;;;4.53;1.67;;;;;;;27.60;51.17;154602.55;1679085;85;21243;-62
2022/06/17 05:43:49;;;;;;;2.22;1.52;;;;;;;27.71;52.21;154630.09;1679308;85;21478;-62
2022/06/17 05:46:24;;;;;;;3.27;1.80;;;;;;;27.79;52.96;154648.50;1656021;86;21557;-61
2022/06/17 05:48:59;;;;;;;3.40;1.62;;;;;;;27.87;53.16;154669.47;1678126;84;21043;-56
2022/06/17 05:51:44;;;;;;;5.65;1.70;;;;;;;27.95;53.38;154689.16;1679042;84;21120;-56
2022/06/17 05:54:22;;;;;;;4.40;1.72;;;;;;;28.01;53.04;154706.23;1678057;84;21439;-57
2022/06/17 05:56:57;;;;;;;6.53;1.95;;;;;;;28.05;53.65;154714.09;1677261;84;21436;-57
2022/06/17 05:59:24;;;;;;;3.45;1.90;;;;;;;28.09;53.76;154724.58;1679234;84;21118;-57
2022/06/17 06:01:51;;;;;;;5.75;1.98;;;;;;;28.14;53.33;154737.69;1679213;85;21092;-63
2022/06/17 06:04:21;;;;;;;3.83;1.67;;;;;;;28.19;52.52;154750.91;1655760;86;21037;-67
2022/06/17 06:06:51;;;;;;;4.28;1.57;;;;;;;28.25;51.73;154766.64;1678382;85;21255;-63
2022/06/17 06:09:19;;;;;;;3.45;1.70;;;;;;;28.31;51.41;154782.37;1656640;86;21461;-63
2022/06/17 06:11:47;;;;;;;5.72;1.62;;;;;;;28.38;50.52;154798.11;1678638;84;21057;-63
2022/06/17 06:14:15;;;;;;;4.00;1.85;;;;;;;28.38;50.35;154799.44;1681986;84;21079;-62
2022/06/17 06:16:42;;;;;;;4.55;1.70;;;;;;;28.41;50.32;154806.03;1687132;83;21060;-62
2022/06/17 06:19:11;;;;;;;3.87;1.60;;;;;;;28.45;49.89;154817.81;1687014;83;21133;-57
2022/06/17 06:21:39;;;;;;;2.92;1.90;;;;;;;28.49;48.73;154825.67;1686758;85;21017;-56
2022/06/17 06:24:07;;;;;;;3.55;1.55;;;;;;;28.52;48.50;154834.88;1687027;84;21070;-62
2022/06/17 06:26:34;;;;;;;3.98;1.90;;;;;;;28.53;48.35;154837.50;1687037;84;21076;-56
2022/06/17 06:29:09;;;;;;;3.52;1.57;;;;;;;28.52;48.41;154834.88;1661916;85;21099;-56
2022/06/17 06:31:38;;;;;;;2.67;1.50;;;;;;;28.54;48.51;154838.84;1686479;85;21265;-62
2022/06/17 06:34:10;;;;;;;6.97;1.80;;;;;;;28.55;49.05;154841.45;1716361;82;21028;-62
2022/06/17 06:36:40;;;;;;;4.35;1.72;;;;;;;28.55;49.00;154842.75;1691378;83;21067;-62
2022/06/17 06:39:07;;;;;;;6.72;1.80;;;;;;;28.59;48.90;154853.23;1681198;85;21096;-62
2022/06/17 06:41:34;;;;;;;8.43;2.10;;;;;;;28.62;48.68;154858.48;1711071;82;21045;-62
2022/06/17 06:44:02;;;;;;;5.87;1.50;;;;;;;28.67;48.99;154871.66;1714065;82;21690;-57
2022/06/17 06:46:34;;;;;;;4.17;1.60;;;;;;;28.71;48.13;154883.42;1699611;83;20978;-62
2022/06/17 06:49:04;;;;;;;4.62;1.70;;;;;;;28.77;49.01;154896.59;1739044;82;20914;-62
2022/06/17 06:51:33;;;;;;;3.30;1.67;;;;;;;28.82;48.96;154909.75;1701535;82;21140;-62
2022/06/17 06:54:01;;;;;;;4.87;1.98;;;;;;;28.81;49.45;154908.42;1735658;82;21028;-57
2022/06/17 06:56:29;;;;;;;3.10;1.47;;;;;;;28.79;49.74;154901.84;1741460;80;21821;-62
2022/06/17 06:58:56;;;;;;;3.80;1.70;;;;;;;28.78;49.67;154899.22;1740959;82;21048;-57
2022/06/17 07:01:23;;;;;;;4.22;1.77;;;;;;;28.76;50.08;154893.97;1716025;82;20991;-57
2022/06/17 07:03:50;;;;;;;3.12;1.77;;;;;;;28.77;50.08;154897.87;1715767;82;20948;-56
2022/06/17 07:06:18;;;;;;;2.67;1.50;;;;;;;28.75;49.47;154892.62;1685478;84;21150;-62
2022/06/17 07:08:47;;;;;;;6.20;1.70;;;;;;;28.76;49.39;154893.97;1715992;83;21224;-62
2022/06/17 07:11:16;;;;;;;5.12;1.70;;;;;;;28.77;49.44;154897.87;1685313;85;21468;-62
2022/06/17 07:13:45;;;;;;;4.03;1.80;;;;;;;28.73;49.48;154887.39;1673606;83;21028;-61
2022/06/17 07:16:14;;;;;;;6.78;1.70;;;;;;;28.69;49.56;154878.19;1659002;85;21505;-62
2022/06/17 07:18:41;;;;;;;5.33;1.52;;;;;;;28.68;49.50;154874.27;1646889;86;21075;-63
2022/06/17 07:21:11;;;;;;;3.67;1.35;;;;;;;28.67;49.68;154871.66;1657063;85;22156;-57
2022/06/17 07:23:42;;;;;;;4.05;1.50;;;;;;;28.67;50.70;154871.66;1655652;85;20975;-57
2022/06/17 07:26:18;;;;;;;6.97;1.50;;;;;;;28.65;50.66;154866.41;1652585;85;21118;-57
2022/06/17 07:28:47;;;;;;;4.58;1.70;;;;;;;28.68;50.46;154875.56;1658377;85;21072;-56
2022/06/17 07:31:13;;;;;;;6.30;1.62;;;;;;;28.67;51.10;154871.66;1658268;85;21434;-56
2022/06/17 07:33:41;;;;;;;5.00;1.50;;;;;;;28.70;51.28;154879.52;1649362;85;21342;-56
2022/06/17 07:36:11;;;;;;;2.25;1.42;;;;;;;28.69;51.27;154876.89;1665844;83;21031;-57
2022/06/17 07:41:25;;;;;;;4.42;1.50;;;;;;;28.55;52.28;154842.75;1656659;86;21465;-56
2022/06/17 07:43:52;;;;;;;3.90;2.05;;;;;;;28.55;53.10;154842.75;1658110;85;21024;-57
2022/06/17 07:46:20;;;;;;;2.12;1.25;;;;;;;28.55;54.08;154842.75;1657906;85;21381;-56
2022/06/17 07:48:46;;;;;;;4.47;1.70;;;;;;;28.59;54.21;154851.95;1658459;85;21088;-56
2022/06/17 07:51:14;;;;;;;3.80;1.57;;;;;;;28.59;54.47;154853.23;1657087;85;21584;-58
2022/06/17 07:53:42;;;;;;;4.28;1.25;;;;;;;28.65;54.83;154866.41;1651739;85;21012;-57
2022/06/17 07:56:13;;;;;;;5.12;1.67;;;;;;;28.64;54.78;154863.78;1658425;86;21474;-58
2022/06/17 07:58:41;;;;;;;6.33;1.70;;;;;;;28.55;55.32;154842.75;1659369;85;21127;-56
2022/06/17 08:01:11;;;;;;;4.08;1.80;;;;;;;28.47;55.83;154821.77;1658588;85;21016;-57
2022/06/17 08:03:37;;;;;;;4.75;1.90;;;;;;;28.45;56.33;154816.52;1658299;85;21044;-57
2022/06/17 08:06:05;;;;;;;5.17;1.62;;;;;;;28.48;56.29;154824.39;1649881;86;21111;-56
2022/06/17 08:08:34;;;;;;;7.03;1.60;;;;;;;28.38;56.57;154798.11;1658376;85;21111;-58
2022/06/17 08:11:01;;;;;;;4.17;1.60;;;;;;;28.30;57.15;154779.75;1659164;85;21833;-57
2022/06/17 08:13:28;;;;;;;2.75;1.45;;;;;;;28.29;57.59;154777.12;1658240;85;21123;-57
2022/06/17 08:15:59;;;;;;;4.03;1.60;;;;;;;28.28;57.73;154773.17;1674374;84;21654;-56
2022/06/17 08:18:27;;;;;;;3.83;1.62;;;;;;;28.15;57.97;154741.70;1678007;84;21037;-57
2022/06/17 08:20:54;;;;;;;4.03;1.37;;;;;;;28.00;58.38;154703.61;1690823;84;21084;-56
2022/06/17 08:23:22;;;;;;;5.42;1.70;;;;;;;27.94;59.04;154687.83;1691098;84;21237;-56
2022/06/17 08:25:49;;;;;;;3.47;1.70;;;;;;;27.91;59.26;154679.97;1715688;83;21055;-56
2022/06/17 08:28:16;;;;;;;3.12;1.57;;;;;;;27.89;59.52;154674.72;1706508;84;21474;-57
2022/06/17 08:30:51;;;;;;;4.90;1.80;;;;;;;27.90;59.84;154676.05;1711610;82;21448;-56
2022/06/17 08:33:26;;;;;;;5.05;1.75;;;;;;;27.91;60.29;154679.97;1683692;83;21057;-56
2022/06/17 08:35:48;;;;;;;3.58;1.80;;;;;;;27.95;60.54;154690.44;1712289;83;21216;-56
2022/06/17 08:38:30;;;;;;;2.75;1.52;;;;;;;27.94;60.70;154687.83;1713509;83;21067;-57
2022/06/17 08:40:59;;;;;;;10.20;1.80;;;;;;;27.91;60.44;154678.67;1710205;83;20967;-57
2022/06/17 08:44:01;;;;;;;12.95;1.75;;;;;;;27.87;60.42;154669.47;1715488;83;21362;-57
2022/06/17 08:46:55;;;;;;;5.62;1.67;;;;;;;27.85;60.73;154665.56;1716382;82;21091;-57
2022/06/17 08:49:45;;;;;;;9.58;1.82;;;;;;;27.81;60.69;154653.75;1686444;85;21541;-57
2022/06/17 08:52:20;;;;;;;5.90;2.35;;;;;;;27.69;61.32;154624.86;1703176;83;20984;-57
2022/06/17 08:55:13;;;;;;;5.30;2.00;;;;;;;27.64;62.03;154611.75;1678543;84;21042;-56
2022/06/17 08:57:47;;;;;;;6.40;1.67;;;;;;;27.62;62.39;154605.16;1730407;82;20948;-57
2022/06/17 09:00:21;;;;;;;6.00;1.55;;;;;;;27.65;62.41;154613.08;1741456;82;21012;-57
2022/06/17 09:03:30;;;;;;;12.82;2.47;;;;;;;27.64;62.94;154611.75;1742005;82;21534;-57
2022/06/17 09:06:28;;;;;;;5.15;1.52;;;;;;;27.64;63.33;154611.75;1738703;82;21429;-56
2022/06/17 09:09:37;;;;;;;4.58;1.85;;;;;;;27.61;63.45;154603.88;1738450;82;20997;-56
2022/06/17 09:12:31;;;;;;;4.33;2.00;;;;;;;27.56;63.89;154590.78;1712669;82;21021;-56
2022/06/17 09:15:23;;;;;;;4.60;1.90;;;;;;;27.50;64.08;154574.94;1732254;82;21029;-56
2022/06/17 09:17:56;;;;;;;4.75;1.77;;;;;;;27.46;64.56;154565.80;1732746;81;22171;-56
2022/06/17 09:20:27;;;;;;;6.08;2.05;;;;;;;27.43;64.79;154559.22;1731889;81;20957;-57
2022/06/17 09:22:57;;;;;;;3.83;1.62;;;;;;;27.36;65.03;154540.88;1731221;81;21044;-56
2022/06/17 09:25:28;;;;;;;6.85;2.27;;;;;;;27.21;65.23;154502.84;1701444;83;21390;-56
2022/06/17 09:27:55;;;;;;;4.17;1.98;;;;;;;27.00;65.64;154450.38;1683631;85;21040;-56
2022/06/17 09:30:32;;;;;;;5.75;2.00;;;;;;;26.80;66.22;154399.16;1683682;85;21254;-58
2022/06/17 09:33:17;;;;;;;6.35;1.85;;;;;;;26.63;66.78;154355.89;1701475;83;21024;-57
2022/06/17 09:35:49;;;;;;;5.60;2.10;;;;;;;26.42;67.11;154303.44;1684178;83;21029;-56
2022/06/17 09:38:39;;;;;;;5.40;1.92;;;;;;;26.21;67.52;154249.72;1701584;84;21488;-57
2022/06/17 09:41:20;;;;;;;4.55;1.95;;;;;;;26.05;68.03;154207.72;1682501;83;21458;-57
2022/06/17 09:44:20;;;;;;;5.30;2.02;;;;;;;25.92;69.03;154176.23;1678855;85;21262;-57
2022/06/17 09:46:54;;;;;;;4.95;1.90;;;;;;;25.83;69.67;154152.66;1660169;85;21033;-57
2022/06/17 09:49:42;;;;;;;7.20;1.87;;;;;;;25.72;69.95;154125.14;1699571;84;21063;-56
2022/06/17 09:52:13;;;;;;;4.97;1.90;;;;;;;25.63;69.97;154102.86;1658192;85;21047;-56
2022/06/17 09:54:46;;;;;;;4.87;1.95;;;;;;;25.53;70.07;154076.63;1684232;83;21561;-57
2022/06/17 09:57:34;;;;;;;7.97;1.75;;;;;;;25.41;70.41;154047.77;1699702;84;21117;-57
2022/06/17 10:00:10;;;;;;;3.87;2.02;;;;;;;25.31;70.75;154021.53;1671266;85;21449;-57
2022/06/17 10:03:12;;;;;;;5.15;1.80;;;;;;;25.22;70.95;153999.31;1684069;85;21029;-57
2022/06/17 10:05:47;;;;;;;7.97;2.10;;;;;;;25.17;71.01;153987.50;1730905;82;21056;-56
2022/06/17 10:08:31;;;;;;;3.05;1.77;;;;;;;25.10;71.11;153969.17;1735720;82;20933;-57
2022/06/17 10:11:32;;;;;;;2.90;1.75;;;;;;;25.00;71.36;153942.95;1735648;82;21486;-56
2022/06/17 10:14:23;;;;;;;3.50;1.57;;;;;;;24.94;71.90;153927.25;1735407;82;21040;-57
2022/06/17 10:20:04;;;;;;;5.05;1.95;;;;;;;24.85;72.46;153904.97;1666376;86;21119;-57
2022/06/17 10:23:18;;;;;;;5.85;2.00;;;;;;;24.83;72.95;153901.03;1712704;82;21000;-56
2022/06/17 10:26:13;;;;;;;3.67;1.82;;;;;;;24.84;73.84;153903.64;1726853;82;21414;-57
2022/06/17 10:29:12;;;;;;;4.72;2.02;;;;;;;24.83;74.37;153901.03;1741211;82;21075;-56
2022/06/17 10:31:43;;;;;;;3.92;2.05;;;;;;;24.84;74.63;153903.64;1742055;82;21028;-57
2022/06/17 10:34:25;;;;;;;4.33;1.80;;;;;;;24.86;74.50;153908.88;1716096;82;21582;-57
2022/06/17 10:36:54;;;;;;;4.53;1.90;;;;;;;24.93;74.66;153924.63;1717038;83;21506;-57
2022/06/17 10:39:23;;;;;;;4.15;1.62;;;;;;;25.03;74.62;153950.80;1675199;83;21274;-57
2022/06/17 10:41:50;;;;;;;3.50;1.70;;;;;;;25.15;74.44;153982.27;1716923;82;21055;-57
2022/06/17 10:44:20;;;;;;;5.47;1.70;;;;;;;25.27;74.28;154011.06;1709569;83;21062;-56
2022/06/17 10:47:03;;;;;;;4.20;1.95;;;;;;;25.41;73.97;154047.77;1717525;82;21087;-56
2022/06/17 10:49:44;;;;;;;6.10;1.60;;;;;;;25.59;73.30;154093.66;1722962;81;21038;-56
2022/06/17 10:52:24;;;;;;;6.22;1.85;;;;;;;25.84;72.37;154155.28;1723298;82;21525;-56
2022/06/17 10:54:52;;;;;;;7.12;2.00;;;;;;;26.08;71.60;154216.84;1712274;83;21448;-57
2022/06/17 10:57:26;;;;;;;3.72;1.62;;;;;;;26.31;70.59;154274.63;1686147;85;21043;-57
2022/06/17 10:59:53;;;;;;;4.00;1.55;;;;;;;26.49;68.65;154319.16;1701983;82;21555;-57
2022/06/17 11:02:30;;;;;;;6.87;1.72;;;;;;;26.60;67.90;154349.31;1703830;82;21074;-57
2022/06/17 11:05:03;;;;;;;6.37;1.80;;;;;;;26.68;67.69;154367.70;1675376;82;21305;-57
2022/06/17 11:07:41;;;;;;;5.40;1.62;;;;;;;26.72;67.16;154378.19;1673202;84;26947;-56
2022/06/17 11:10:21;;;;;;;4.00;1.82;;;;;;;26.75;66.56;154386.05;1702534;83;21021;-56
2022/06/17 11:13:03;;;;;;;6.08;1.62;;;;;;;26.75;66.34;154386.05;1709363;82;21118;-57
2022/06/17 11:15:50;;;;;;;4.67;1.87;;;;;;;26.78;65.51;154392.63;1710976;83;21568;-58
2022/06/17 11:18:31;;;;;;;3.45;1.70;;;;;;;26.88;63.92;154420.22;1706434;82;21474;-57
2022/06/17 11:21:06;;;;;;;5.53;1.37;;;;;;;26.96;62.15;154438.56;1713204;82;21476;-57
2022/06/17 11:23:39;;;;;;;7.30;2.00;;;;;;;27.01;60.59;154453.00;1712402;81;21032;-57
2022/06/17 11:26:16;;;;;;;7.45;1.60;;;;;;;26.97;59.86;154441.19;1707469;82;21074;-57
2022/06/17 11:28:47;;;;;;;4.50;1.80;;;;;;;26.89;59.82;154421.50;1708108;82;21075;-57
2022/06/17 11:31:25;;;;;;;3.50;1.50;;;;;;;26.82;59.86;154403.11;1706685;82;22038;-57
2022/06/17 11:33:58;;;;;;;1.95;1.10;;;;;;;26.72;60.00;154379.47;1706195;83;21031;-56
2022/06/17 11:36:32;;;;;;;4.85;1.82;;;;;;;26.64;60.23;154357.19;1702130;82;21027;-57
2022/06/17 11:39:21;;;;;;;2.72;1.40;;;;;;;26.53;60.93;154330.98;1699476;82;21586;-57
2022/06/17 11:41:49;;;;;;;5.97;2.17;;;;;;;26.48;61.52;154316.55;1673352;83;21479;-57
2022/06/17 11:44:17;;;;;;;4.72;1.60;;;;;;;26.37;61.67;154289.02;1704114;82;21229;-57
2022/06/17 11:46:51;;;;;;;3.52;1.55;;;;;;;26.28;61.25;154266.72;1701862;83;21456;-58
2022/06/17 11:49:19;;;;;;;4.70;1.62;;;;;;;26.17;61.50;154239.19;1707550;83;21060;-57
2022/06/17 11:51:51;;;;;;;4.53;2.02;;;;;;;26.06;61.70;154210.33;1676702;84;21123;-57
2022/06/17 11:54:29;;;;;;;3.60;1.52;;;;;;;25.96;61.10;154186.70;1688150;83;21146;-57
2022/06/17 11:56:56;;;;;;;5.55;1.55;;;;;;;25.87;61.13;154163.14;1678346;84;21067;-58
2022/06/17 11:59:30;;;;;;;4.22;1.65;;;;;;;25.78;61.38;154139.56;1658322;84;21094;-58
2022/06/17 12:02:07;;;;;;;6.20;1.62;;;;;;;25.73;60.73;154129.05;1690614;84;21370;-57
2022/06/17 12:04:55;;;;;;;5.70;1.65;;;;;;;25.67;60.52;154112.05;1715161;82;21089;-58
2022/06/17 12:07:59;;;;;;;5.33;1.60;;;;;;;25.64;60.76;154105.47;1761824;81;21071;-57
2022/06/17 12:10:49;;;;;;;3.92;1.42;;;;;;;25.59;59.02;154092.38;1727486;82;21883;-57